sensor_id;sensor_type;location;lat;lon;timestamp;P1;durP1;ratioP1;P2;durP2;ratioP2
20101;SDS011;10210;52.284;9.892;2022-12-07T00:01:29;34.13;;;18.10;;
20101;SDS011;10210;52.284;9.892;2022-12-07T00:03:58;32.67;;;19.03;;
20101;SDS011;10210;52.284;9.892;2022-12-07T00:06:30;32.80;;;17.83;;
20101;SDS011;10210;52.284;9.892;2022-12-07T00:09:01;30.70;;;17.93;;
20101;SDS011;10210;52.284;9.892;2022-12-07T00:11:29;34.67;;;18.67;;
20101;SDS011;10210;52.284;9.892;2022-12-07T00:13:57;34.03;;;17.83;;
20101;SDS011;10210;52.284;9.892;2022-12-07T00:16:26;33.23;;;19.10;;
20101;SDS011;10210;52.284;9.892;2022-12-07T00:18:56;30.77;;;18.27;;
20101;SDS011;10210;52.284;9.892;2022-12-07T00:21:24;34.50;;;18.80;;
20101;SDS011;10210;52.284;9.892;2022-12-07T00:23:53;35.77;;;20.53;;
20101;SDS011;10210;52.284;9.892;2022-12-07T00:26:24;39.90;;;20.77;;
20101;SDS011;10210;52.284;9.892;2022-12-07T00:29:04;39.30;;;22.17;;
20101;SDS011;10210;52.284;9.892;2022-12-07T00:31:41;35.80;;;21.23;;
20101;SDS011;10210;52.284;9.892;2022-12-07T00:34:07;37.27;;;21.77;;
20101;SDS011;10210;52.284;9.892;2022-12-07T00:36:41;39.73;;;22.33;;
20101;SDS011;10210;52.284;9.892;2022-12-07T00:39:07;43.83;;;23.37;;
20101;SDS011;10210;52.284;9.892;2022-12-07T00:41:33;40.80;;;23.40;;
20101;SDS011;10210;52.284;9.892;2022-12-07T00:43:59;38.80;;;22.20;;
20101;SDS011;10210;52.284;9.892;2022-12-07T00:46:25;38.73;;;23.37;;
20101;SDS011;10210;52.284;9.892;2022-12-07T00:48:52;39.83;;;22.57;;
20101;SDS011;10210;52.284;9.892;2022-12-07T00:51:19;38.60;;;21.73;;
20101;SDS011;10210;52.284;9.892;2022-12-07T00:53:48;35.27;;;21.47;;
20101;SDS011;10210;52.284;9.892;2022-12-07T00:58:42;36.40;;;21.17;;
20101;SDS011;10210;52.284;9.892;2022-12-07T01:01:09;37.43;;;22.37;;
20101;SDS011;10210;52.284;9.892;2022-12-07T01:03:36;34.70;;;20.43;;
20101;SDS011;10210;52.284;9.892;2022-12-07T01:06:03;32.90;;;19.67;;
20101;SDS011;10210;52.284;9.892;2022-12-07T01:08:29;33.50;;;19.17;;
20101;SDS011;10210;52.284;9.892;2022-12-07T01:10:59;33.37;;;20.20;;
20101;SDS011;10210;52.284;9.892;2022-12-07T01:13:31;32.73;;;20.00;;
20101;SDS011;10210;52.284;9.892;2022-12-07T01:16:00;29.70;;;18.97;;
20101;SDS011;10210;52.284;9.892;2022-12-07T01:18:29;30.67;;;18.37;;
20101;SDS011;10210;52.284;9.892;2022-12-07T01:21:05;29.77;;;18.60;;
20101;SDS011;10210;52.284;9.892;2022-12-07T01:23:36;30.57;;;18.50;;
20101;SDS011;10210;52.284;9.892;2022-12-07T01:26:03;29.83;;;18.17;;
20101;SDS011;10210;52.284;9.892;2022-12-07T01:28:33;27.23;;;17.07;;
20101;SDS011;10210;52.284;9.892;2022-12-07T01:31:00;29.70;;;17.87;;
20101;SDS011;10210;52.284;9.892;2022-12-07T01:33:30;27.97;;;16.43;;
20101;SDS011;10210;52.284;9.892;2022-12-07T01:36:13;27.87;;;16.40;;
20101;SDS011;10210;52.284;9.892;2022-12-07T01:38:41;28.80;;;16.67;;
20101;SDS011;10210;52.284;9.892;2022-12-07T01:41:08;31.40;;;18.20;;
20101;SDS011;10210;52.284;9.892;2022-12-07T01:43:34;26.43;;;16.27;;
20101;SDS011;10210;52.284;9.892;2022-12-07T01:46:00;28.00;;;17.17;;
20101;SDS011;10210;52.284;9.892;2022-12-07T01:48:29;27.67;;;16.93;;
20101;SDS011;10210;52.284;9.892;2022-12-07T01:51:08;25.60;;;15.87;;
20101;SDS011;10210;52.284;9.892;2022-12-07T01:53:38;27.53;;;17.07;;
20101;SDS011;10210;52.284;9.892;2022-12-07T01:56:10;28.90;;;18.10;;
20101;SDS011;10210;52.284;9.892;2022-12-07T01:58:44;26.77;;;16.50;;
20101;SDS011;10210;52.284;9.892;2022-12-07T02:01:10;27.77;;;17.23;;
20101;SDS011;10210;52.284;9.892;2022-12-07T02:03:39;28.47;;;18.23;;
20101;SDS011;10210;52.284;9.892;2022-12-07T02:06:10;26.73;;;17.07;;
20101;SDS011;10210;52.284;9.892;2022-12-07T02:08:41;27.10;;;17.87;;
20101;SDS011;10210;52.284;9.892;2022-12-07T02:11:08;28.30;;;17.70;;
20101;SDS011;10210;52.284;9.892;2022-12-07T02:13:35;28.00;;;18.17;;
20101;SDS011;10210;52.284;9.892;2022-12-07T02:25:33;28.20;;;16.90;;
20101;SDS011;10210;52.284;9.892;2022-12-07T02:28:28;26.40;;;16.43;;
20101;SDS011;10210;52.284;9.892;2022-12-07T02:31:04;26.50;;;14.97;;
20101;SDS011;10210;52.284;9.892;2022-12-07T02:33:40;26.20;;;15.50;;
20101;SDS011;10210;52.284;9.892;2022-12-07T02:36:17;27.97;;;17.17;;
20101;SDS011;10210;52.284;9.892;2022-12-07T02:39:00;27.37;;;16.10;;
20101;SDS011;10210;52.284;9.892;2022-12-07T02:41:38;26.97;;;16.20;;
20101;SDS011;10210;52.284;9.892;2022-12-07T02:44:13;29.77;;;17.33;;
20101;SDS011;10210;52.284;9.892;2022-12-07T02:46:57;28.17;;;16.20;;
20101;SDS011;10210;52.284;9.892;2022-12-07T02:49:33;27.03;;;15.17;;
20101;SDS011;10210;52.284;9.892;2022-12-07T02:52:01;25.83;;;15.50;;
20101;SDS011;10210;52.284;9.892;2022-12-07T02:54:27;26.00;;;15.53;;
20101;SDS011;10210;52.284;9.892;2022-12-07T03:05:36;25.33;;;14.43;;
20101;SDS011;10210;52.284;9.892;2022-12-07T03:11:09;26.20;;;14.03;;
20101;SDS011;10210;52.284;9.892;2022-12-07T03:16:27;24.23;;;14.17;;
20101;SDS011;10210;52.284;9.892;2022-12-07T03:19:13;25.57;;;14.37;;
20101;SDS011;10210;52.284;9.892;2022-12-07T03:21:46;25.57;;;13.80;;
20101;SDS011;10210;52.284;9.892;2022-12-07T03:24:29;24.37;;;13.03;;
20101;SDS011;10210;52.284;9.892;2022-12-07T03:27:08;26.07;;;14.57;;
20101;SDS011;10210;52.284;9.892;2022-12-07T03:29:45;25.37;;;14.13;;
20101;SDS011;10210;52.284;9.892;2022-12-07T03:35:28;25.30;;;14.33;;
20101;SDS011;10210;52.284;9.892;2022-12-07T03:38:18;28.30;;;14.53;;
20101;SDS011;10210;52.284;9.892;2022-12-07T03:41:06;27.07;;;15.40;;
20101;SDS011;10210;52.284;9.892;2022-12-07T03:43:39;25.97;;;14.93;;
20101;SDS011;10210;52.284;9.892;2022-12-07T03:46:20;24.93;;;13.37;;
20101;SDS011;10210;52.284;9.892;2022-12-07T03:48:57;26.17;;;13.83;;
20101;SDS011;10210;52.284;9.892;2022-12-07T03:54:18;25.90;;;13.87;;
20101;SDS011;10210;52.284;9.892;2022-12-07T03:56:51;26.77;;;13.07;;
20101;SDS011;10210;52.284;9.892;2022-12-07T03:59:19;22.70;;;12.70;;
20101;SDS011;10210;52.284;9.892;2022-12-07T04:01:51;23.83;;;12.37;;
20101;SDS011;10210;52.284;9.892;2022-12-07T04:04:22;23.57;;;12.47;;
20101;SDS011;10210;52.284;9.892;2022-12-07T04:06:49;23.43;;;12.03;;
20101;SDS011;10210;52.284;9.892;2022-12-07T04:09:15;23.93;;;11.93;;
20101;SDS011;10210;52.284;9.892;2022-12-07T04:11:42;21.67;;;10.90;;
20101;SDS011;10210;52.284;9.892;2022-12-07T04:14:08;28.03;;;13.03;;
20101;SDS011;10210;52.284;9.892;2022-12-07T04:16:46;22.00;;;11.80;;
20101;SDS011;10210;52.284;9.892;2022-12-07T04:19:14;21.47;;;11.23;;
20101;SDS011;10210;52.284;9.892;2022-12-07T04:21:42;22.30;;;11.37;;
20101;SDS011;10210;52.284;9.892;2022-12-07T04:24:08;24.23;;;12.03;;
20101;SDS011;10210;52.284;9.892;2022-12-07T04:26:34;21.67;;;10.60;;
20101;SDS011;10210;52.284;9.892;2022-12-07T04:29:00;21.80;;;10.97;;
20101;SDS011;10210;52.284;9.892;2022-12-07T04:31:26;22.60;;;11.67;;
20101;SDS011;10210;52.284;9.892;2022-12-07T04:33:52;24.03;;;11.03;;
20101;SDS011;10210;52.284;9.892;2022-12-07T04:36:18;23.00;;;10.53;;
20101;SDS011;10210;52.284;9.892;2022-12-07T04:38:44;22.33;;;10.97;;
20101;SDS011;10210;52.284;9.892;2022-12-07T04:41:11;23.40;;;10.37;;
20101;SDS011;10210;52.284;9.892;2022-12-07T04:43:36;25.40;;;11.53;;
20101;SDS011;10210;52.284;9.892;2022-12-07T04:46:02;21.43;;;10.77;;
20101;SDS011;10210;52.284;9.892;2022-12-07T04:48:28;22.43;;;10.67;;
20101;SDS011;10210;52.284;9.892;2022-12-07T04:50:54;23.37;;;10.83;;
20101;SDS011;10210;52.284;9.892;2022-12-07T04:53:20;22.07;;;11.07;;
20101;SDS011;10210;52.284;9.892;2022-12-07T04:55:45;24.33;;;11.97;;
20101;SDS011;10210;52.284;9.892;2022-12-07T04:58:12;22.93;;;10.70;;
20101;SDS011;10210;52.284;9.892;2022-12-07T05:00:39;25.03;;;12.27;;
20101;SDS011;10210;52.284;9.892;2022-12-07T05:03:05;24.37;;;11.07;;
20101;SDS011;10210;52.284;9.892;2022-12-07T05:05:31;24.27;;;12.10;;
20101;SDS011;10210;52.284;9.892;2022-12-07T05:07:56;22.93;;;10.77;;
20101;SDS011;10210;52.284;9.892;2022-12-07T05:10:22;22.87;;;11.10;;
20101;SDS011;10210;52.284;9.892;2022-12-07T05:12:48;22.63;;;10.73;;
20101;SDS011;10210;52.284;9.892;2022-12-07T05:15:14;21.17;;;10.20;;
20101;SDS011;10210;52.284;9.892;2022-12-07T05:17:41;25.73;;;9.87;;
20101;SDS011;10210;52.284;9.892;2022-12-07T05:20:08;22.77;;;10.40;;
20101;SDS011;10210;52.284;9.892;2022-12-07T05:22:35;23.83;;;10.10;;
20101;SDS011;10210;52.284;9.892;2022-12-07T05:25:00;24.17;;;10.03;;
20101;SDS011;10210;52.284;9.892;2022-12-07T05:27:26;22.53;;;9.57;;
20101;SDS011;10210;52.284;9.892;2022-12-07T05:29:52;20.00;;;8.93;;
20101;SDS011;10210;52.284;9.892;2022-12-07T05:32:18;25.27;;;9.60;;
20101;SDS011;10210;52.284;9.892;2022-12-07T05:34:44;19.83;;;8.60;;
20101;SDS011;10210;52.284;9.892;2022-12-07T05:37:10;20.90;;;9.07;;
20101;SDS011;10210;52.284;9.892;2022-12-07T05:39:36;20.43;;;8.47;;
20101;SDS011;10210;52.284;9.892;2022-12-07T05:42:06;21.03;;;8.30;;
20101;SDS011;10210;52.284;9.892;2022-12-07T05:44:41;18.97;;;8.13;;
20101;SDS011;10210;52.284;9.892;2022-12-07T05:47:10;19.77;;;8.10;;
20101;SDS011;10210;52.284;9.892;2022-12-07T05:49:37;20.13;;;7.80;;
20101;SDS011;10210;52.284;9.892;2022-12-07T05:52:03;17.63;;;7.60;;
20101;SDS011;10210;52.284;9.892;2022-12-07T05:54:29;19.53;;;7.67;;
20101;SDS011;10210;52.284;9.892;2022-12-07T05:56:55;20.07;;;7.50;;
20101;SDS011;10210;52.284;9.892;2022-12-07T05:59:22;21.20;;;7.60;;
20101;SDS011;10210;52.284;9.892;2022-12-07T06:01:49;19.67;;;7.43;;
20101;SDS011;10210;52.284;9.892;2022-12-07T06:04:25;19.87;;;7.33;;
20101;SDS011;10210;52.284;9.892;2022-12-07T06:06:54;18.07;;;7.10;;
20101;SDS011;10210;52.284;9.892;2022-12-07T06:09:20;17.67;;;7.30;;
20101;SDS011;10210;52.284;9.892;2022-12-07T06:11:48;17.30;;;7.20;;
20101;SDS011;10210;52.284;9.892;2022-12-07T06:14:33;19.40;;;7.23;;
20101;SDS011;10210;52.284;9.892;2022-12-07T06:16:59;18.87;;;7.30;;
20101;SDS011;10210;52.284;9.892;2022-12-07T06:19:25;19.97;;;7.43;;
20101;SDS011;10210;52.284;9.892;2022-12-07T06:21:50;22.63;;;7.67;;
20101;SDS011;10210;52.284;9.892;2022-12-07T06:24:16;17.83;;;7.33;;
20101;SDS011;10210;52.284;9.892;2022-12-07T06:26:43;17.80;;;6.70;;
20101;SDS011;10210;52.284;9.892;2022-12-07T06:29:10;16.97;;;6.90;;
20101;SDS011;10210;52.284;9.892;2022-12-07T06:31:37;18.63;;;6.30;;
20101;SDS011;10210;52.284;9.892;2022-12-07T06:34:04;18.30;;;6.57;;
20101;SDS011;10210;52.284;9.892;2022-12-07T06:36:34;17.17;;;6.33;;
20101;SDS011;10210;52.284;9.892;2022-12-07T06:39:00;16.63;;;6.23;;
20101;SDS011;10210;52.284;9.892;2022-12-07T06:41:26;18.70;;;6.13;;
20101;SDS011;10210;52.284;9.892;2022-12-07T06:43:51;16.70;;;5.80;;
20101;SDS011;10210;52.284;9.892;2022-12-07T06:46:17;16.40;;;6.17;;
20101;SDS011;10210;52.284;9.892;2022-12-07T06:48:43;19.23;;;6.33;;
20101;SDS011;10210;52.284;9.892;2022-12-07T06:51:09;14.13;;;6.23;;
20101;SDS011;10210;52.284;9.892;2022-12-07T06:53:35;17.43;;;6.20;;
20101;SDS011;10210;52.284;9.892;2022-12-07T06:56:02;16.03;;;6.27;;
20101;SDS011;10210;52.284;9.892;2022-12-07T06:58:29;15.13;;;5.80;;
20101;SDS011;10210;52.284;9.892;2022-12-07T07:00:55;19.30;;;5.50;;
20101;SDS011;10210;52.284;9.892;2022-12-07T07:03:21;15.20;;;5.33;;
20101;SDS011;10210;52.284;9.892;2022-12-07T07:05:47;18.47;;;5.63;;
20101;SDS011;10210;52.284;9.892;2022-12-07T07:08:13;16.40;;;5.73;;
20101;SDS011;10210;52.284;9.892;2022-12-07T07:10:39;14.33;;;5.47;;
20101;SDS011;10210;52.284;9.892;2022-12-07T07:13:05;16.63;;;5.43;;
20101;SDS011;10210;52.284;9.892;2022-12-07T07:15:33;13.93;;;5.30;;
20101;SDS011;10210;52.284;9.892;2022-12-07T07:17:59;17.03;;;5.43;;
20101;SDS011;10210;52.284;9.892;2022-12-07T07:20:25;15.00;;;5.37;;
20101;SDS011;10210;52.284;9.892;2022-12-07T07:22:55;14.40;;;5.07;;
20101;SDS011;10210;52.284;9.892;2022-12-07T07:25:21;19.20;;;5.60;;
20101;SDS011;10210;52.284;9.892;2022-12-07T07:27:47;13.83;;;5.00;;
20101;SDS011;10210;52.284;9.892;2022-12-07T07:30:13;15.07;;;4.60;;
20101;SDS011;10210;52.284;9.892;2022-12-07T07:32:39;18.57;;;5.40;;
20101;SDS011;10210;52.284;9.892;2022-12-07T07:35:05;14.43;;;4.63;;
20101;SDS011;10210;52.284;9.892;2022-12-07T07:37:31;15.43;;;5.40;;
20101;SDS011;10210;52.284;9.892;2022-12-07T07:39:57;18.07;;;5.10;;
20101;SDS011;10210;52.284;9.892;2022-12-07T07:42:22;13.47;;;4.70;;
20101;SDS011;10210;52.284;9.892;2022-12-07T07:44:48;16.53;;;4.50;;
20101;SDS011;10210;52.284;9.892;2022-12-07T07:47:14;11.73;;;4.23;;
20101;SDS011;10210;52.284;9.892;2022-12-07T07:49:39;12.40;;;4.00;;
20101;SDS011;10210;52.284;9.892;2022-12-07T07:52:05;11.50;;;3.83;;
20101;SDS011;10210;52.284;9.892;2022-12-07T07:54:31;12.40;;;4.03;;
20101;SDS011;10210;52.284;9.892;2022-12-07T07:56:57;11.37;;;3.67;;
20101;SDS011;10210;52.284;9.892;2022-12-07T07:59:23;12.17;;;3.50;;
20101;SDS011;10210;52.284;9.892;2022-12-07T08:01:50;13.73;;;3.33;;
20101;SDS011;10210;52.284;9.892;2022-12-07T08:04:15;10.43;;;3.23;;
20101;SDS011;10210;52.284;9.892;2022-12-07T08:06:41;10.57;;;3.17;;
20101;SDS011;10210;52.284;9.892;2022-12-07T08:09:08;11.40;;;3.20;;
20101;SDS011;10210;52.284;9.892;2022-12-07T08:11:35;11.30;;;3.23;;
20101;SDS011;10210;52.284;9.892;2022-12-07T08:14:01;10.70;;;3.27;;
20101;SDS011;10210;52.284;9.892;2022-12-07T08:16:27;13.57;;;3.60;;
20101;SDS011;10210;52.284;9.892;2022-12-07T08:18:53;10.93;;;3.10;;
20101;SDS011;10210;52.284;9.892;2022-12-07T08:21:19;9.97;;;2.77;;
20101;SDS011;10210;52.284;9.892;2022-12-07T08:23:44;9.70;;;2.80;;
20101;SDS011;10210;52.284;9.892;2022-12-07T08:26:11;13.23;;;2.97;;
20101;SDS011;10210;52.284;9.892;2022-12-07T08:28:40;13.90;;;2.70;;
20101;SDS011;10210;52.284;9.892;2022-12-07T08:31:07;12.70;;;3.13;;
20101;SDS011;10210;52.284;9.892;2022-12-07T08:33:40;13.30;;;3.13;;
20101;SDS011;10210;52.284;9.892;2022-12-07T08:36:09;10.10;;;3.10;;
20101;SDS011;10210;52.284;9.892;2022-12-07T08:38:37;12.37;;;2.80;;
20101;SDS011;10210;52.284;9.892;2022-12-07T08:41:05;10.60;;;3.10;;
20101;SDS011;10210;52.284;9.892;2022-12-07T08:43:34;12.67;;;2.87;;
20101;SDS011;10210;52.284;9.892;2022-12-07T08:46:05;10.57;;;2.67;;
20101;SDS011;10210;52.284;9.892;2022-12-07T08:48:38;9.47;;;2.70;;
20101;SDS011;10210;52.284;9.892;2022-12-07T08:51:10;11.70;;;3.17;;
20101;SDS011;10210;52.284;9.892;2022-12-07T08:53:37;14.50;;;2.70;;
20101;SDS011;10210;52.284;9.892;2022-12-07T08:56:04;13.33;;;3.00;;
20101;SDS011;10210;52.284;9.892;2022-12-07T08:58:31;10.37;;;2.93;;
20101;SDS011;10210;52.284;9.892;2022-12-07T09:00:58;9.00;;;2.90;;
20101;SDS011;10210;52.284;9.892;2022-12-07T09:03:24;9.60;;;3.00;;
20101;SDS011;10210;52.284;9.892;2022-12-07T09:05:50;9.93;;;2.83;;
20101;SDS011;10210;52.284;9.892;2022-12-07T09:08:18;9.90;;;2.87;;
20101;SDS011;10210;52.284;9.892;2022-12-07T09:10:44;10.87;;;3.17;;
20101;SDS011;10210;52.284;9.892;2022-12-07T09:13:11;9.60;;;3.10;;
20101;SDS011;10210;52.284;9.892;2022-12-07T09:15:36;9.93;;;2.87;;
20101;SDS011;10210;52.284;9.892;2022-12-07T09:18:02;8.20;;;2.63;;
20101;SDS011;10210;52.284;9.892;2022-12-07T09:20:28;8.33;;;3.07;;
20101;SDS011;10210;52.284;9.892;2022-12-07T09:22:53;10.93;;;3.70;;
20101;SDS011;10210;52.284;9.892;2022-12-07T09:25:19;9.53;;;2.80;;
20101;SDS011;10210;52.284;9.892;2022-12-07T09:27:45;12.00;;;2.90;;
20101;SDS011;10210;52.284;9.892;2022-12-07T09:30:10;8.70;;;2.70;;
20101;SDS011;10210;52.284;9.892;2022-12-07T09:32:36;8.93;;;2.50;;
20101;SDS011;10210;52.284;9.892;2022-12-07T09:35:02;7.53;;;2.40;;
20101;SDS011;10210;52.284;9.892;2022-12-07T09:37:28;12.87;;;3.47;;
20101;SDS011;10210;52.284;9.892;2022-12-07T09:39:53;8.30;;;2.77;;
20101;SDS011;10210;52.284;9.892;2022-12-07T09:42:27;10.53;;;2.60;;
20101;SDS011;10210;52.284;9.892;2022-12-07T09:44:56;9.60;;;2.70;;
20101;SDS011;10210;52.284;9.892;2022-12-07T09:47:24;9.20;;;3.00;;
20101;SDS011;10210;52.284;9.892;2022-12-07T09:49:51;11.80;;;2.80;;
20101;SDS011;10210;52.284;9.892;2022-12-07T09:52:21;7.77;;;2.63;;
20101;SDS011;10210;52.284;9.892;2022-12-07T09:54:53;9.07;;;2.60;;
20101;SDS011;10210;52.284;9.892;2022-12-07T09:57:21;10.83;;;3.03;;
20101;SDS011;10210;52.284;9.892;2022-12-07T09:59:59;12.17;;;2.80;;
20101;SDS011;10210;52.284;9.892;2022-12-07T10:02:34;9.20;;;2.70;;
20101;SDS011;10210;52.284;9.892;2022-12-07T10:05:11;8.93;;;2.70;;
20101;SDS011;10210;52.284;9.892;2022-12-07T10:07:44;7.40;;;2.37;;
20101;SDS011;10210;52.284;9.892;2022-12-07T10:10:26;9.53;;;3.17;;
20101;SDS011;10210;52.284;9.892;2022-12-07T10:13:08;10.97;;;2.60;;
20101;SDS011;10210;52.284;9.892;2022-12-07T10:18:32;8.97;;;2.50;;
20101;SDS011;10210;52.284;9.892;2022-12-07T10:21:03;6.87;;;2.20;;
20101;SDS011;10210;52.284;9.892;2022-12-07T10:23:38;9.97;;;2.20;;
20101;SDS011;10210;52.284;9.892;2022-12-07T10:31:56;6.47;;;1.83;;
20101;SDS011;10210;52.284;9.892;2022-12-07T10:34:27;8.97;;;2.10;;
20101;SDS011;10210;52.284;9.892;2022-12-07T10:39:41;9.67;;;1.90;;
20101;SDS011;10210;52.284;9.892;2022-12-07T10:50:54;8.50;;;2.10;;
20101;SDS011;10210;52.284;9.892;2022-12-07T10:56:35;7.87;;;2.00;;
20101;SDS011;10210;52.284;9.892;2022-12-07T10:59:51;7.03;;;2.30;;
20101;SDS011;10210;52.284;9.892;2022-12-07T11:03:14;8.67;;;2.10;;
20101;SDS011;10210;52.284;9.892;2022-12-07T11:05:45;11.87;;;2.53;;
20101;SDS011;10210;52.284;9.892;2022-12-07T11:17:04;6.53;;;2.30;;
20101;SDS011;10210;52.284;9.892;2022-12-07T11:20:12;7.13;;;2.43;;
20101;SDS011;10210;52.284;9.892;2022-12-07T11:23:04;11.67;;;2.57;;
20101;SDS011;10210;52.284;9.892;2022-12-07T11:38:07;5.77;;;1.60;;
20101;SDS011;10210;52.284;9.892;2022-12-07T11:40:51;4.90;;;1.50;;
20101;SDS011;10210;52.284;9.892;2022-12-07T11:43:37;5.20;;;1.20;;
20101;SDS011;10210;52.284;9.892;2022-12-07T11:46:33;6.80;;;1.83;;
20101;SDS011;10210;52.284;9.892;2022-12-07T11:52:13;5.20;;;1.50;;
20101;SDS011;10210;52.284;9.892;2022-12-07T11:55:14;4.90;;;1.47;;
20101;SDS011;10210;52.284;9.892;2022-12-07T11:58:23;3.30;;;1.43;;
20101;SDS011;10210;52.284;9.892;2022-12-07T12:01:21;4.53;;;1.10;;
20101;SDS011;10210;52.284;9.892;2022-12-07T12:06:36;4.50;;;1.20;;
20101;SDS011;10210;52.284;9.892;2022-12-07T12:09:12;3.33;;;1.50;;
20101;SDS011;10210;52.284;9.892;2022-12-07T12:14:30;5.13;;;1.50;;
20101;SDS011;10210;52.284;9.892;2022-12-07T12:23:18;5.43;;;2.37;;
20101;SDS011;10210;52.284;9.892;2022-12-07T12:25:55;8.33;;;2.57;;
20101;SDS011;10210;52.284;9.892;2022-12-07T12:28:35;7.03;;;2.50;;
20101;SDS011;10210;52.284;9.892;2022-12-07T12:36:55;10.43;;;2.90;;
20101;SDS011;10210;52.284;9.892;2022-12-07T12:39:21;7.93;;;2.60;;
20101;SDS011;10210;52.284;9.892;2022-12-07T12:46:51;15.43;;;3.63;;
20101;SDS011;10210;52.284;9.892;2022-12-07T12:54:25;13.60;;;4.23;;
20101;SDS011;10210;52.284;9.892;2022-12-07T12:57:07;17.30;;;3.93;;
20101;SDS011;10210;52.284;9.892;2022-12-07T13:02:22;12.70;;;3.40;;
20101;SDS011;10210;52.284;9.892;2022-12-07T13:04:59;14.27;;;3.13;;
20101;SDS011;10210;52.284;9.892;2022-12-07T13:29:16;18.57;;;5.33;;
20101;SDS011;10210;52.284;9.892;2022-12-07T13:34:29;16.53;;;3.33;;
20101;SDS011;10210;52.284;9.892;2022-12-07T13:39:58;16.67;;;3.20;;
20101;SDS011;10210;52.284;9.892;2022-12-07T13:42:37;17.37;;;4.00;;
20101;SDS011;10210;52.284;9.892;2022-12-07T13:48:32;11.13;;;3.00;;
20101;SDS011;10210;52.284;9.892;2022-12-07T13:51:36;9.67;;;3.17;;
20101;SDS011;10210;52.284;9.892;2022-12-07T13:54:08;10.57;;;3.03;;
20101;SDS011;10210;52.284;9.892;2022-12-07T13:56:37;11.53;;;3.03;;
20101;SDS011;10210;52.284;9.892;2022-12-07T13:59:15;14.00;;;3.00;;
20101;SDS011;10210;52.284;9.892;2022-12-07T14:01:48;12.60;;;2.80;;
20101;SDS011;10210;52.284;9.892;2022-12-07T14:04:16;12.23;;;3.00;;
20101;SDS011;10210;52.284;9.892;2022-12-07T14:06:54;9.77;;;2.20;;
20101;SDS011;10210;52.284;9.892;2022-12-07T14:09:26;9.87;;;2.60;;
20101;SDS011;10210;52.284;9.892;2022-12-07T14:11:55;11.53;;;3.33;;
20101;SDS011;10210;52.284;9.892;2022-12-07T14:14:23;9.03;;;3.17;;
20101;SDS011;10210;52.284;9.892;2022-12-07T14:17:00;13.30;;;3.20;;
20101;SDS011;10210;52.284;9.892;2022-12-07T14:19:45;14.77;;;3.50;;
20101;SDS011;10210;52.284;9.892;2022-12-07T14:24:59;13.40;;;3.30;;
20101;SDS011;10210;52.284;9.892;2022-12-07T14:27:34;12.77;;;3.37;;
20101;SDS011;10210;52.284;9.892;2022-12-07T14:30:01;15.90;;;4.10;;
20101;SDS011;10210;52.284;9.892;2022-12-07T14:32:29;13.17;;;3.77;;
20101;SDS011;10210;52.284;9.892;2022-12-07T14:34:59;15.77;;;3.17;;
20101;SDS011;10210;52.284;9.892;2022-12-07T14:37:35;14.30;;;3.80;;
20101;SDS011;10210;52.284;9.892;2022-12-07T14:40:04;10.53;;;3.17;;
20101;SDS011;10210;52.284;9.892;2022-12-07T14:42:31;12.87;;;2.70;;
20101;SDS011;10210;52.284;9.892;2022-12-07T14:44:59;12.90;;;2.97;;
20101;SDS011;10210;52.284;9.892;2022-12-07T14:47:25;14.97;;;3.00;;
20101;SDS011;10210;52.284;9.892;2022-12-07T14:49:53;10.40;;;2.70;;
20101;SDS011;10210;52.284;9.892;2022-12-07T14:52:25;11.70;;;3.23;;
20101;SDS011;10210;52.284;9.892;2022-12-07T14:54:54;16.00;;;3.73;;
20101;SDS011;10210;52.284;9.892;2022-12-07T14:57:20;14.30;;;3.47;;
20101;SDS011;10210;52.284;9.892;2022-12-07T14:59:48;11.27;;;3.33;;
20101;SDS011;10210;52.284;9.892;2022-12-07T15:02:14;13.37;;;2.97;;
20101;SDS011;10210;52.284;9.892;2022-12-07T15:04:40;13.73;;;3.40;;
20101;SDS011;10210;52.284;9.892;2022-12-07T15:07:09;19.00;;;3.97;;
20101;SDS011;10210;52.284;9.892;2022-12-07T15:09:47;11.00;;;2.67;;
20101;SDS011;10210;52.284;9.892;2022-12-07T15:12:16;13.67;;;3.20;;
20101;SDS011;10210;52.284;9.892;2022-12-07T15:14:42;12.03;;;2.73;;
20101;SDS011;10210;52.284;9.892;2022-12-07T15:17:09;8.93;;;2.70;;
20101;SDS011;10210;52.284;9.892;2022-12-07T15:19:37;13.47;;;3.77;;
20101;SDS011;10210;52.284;9.892;2022-12-07T15:22:03;13.03;;;4.37;;
20101;SDS011;10210;52.284;9.892;2022-12-07T15:24:29;14.47;;;3.20;;
20101;SDS011;10210;52.284;9.892;2022-12-07T15:26:55;10.43;;;3.17;;
20101;SDS011;10210;52.284;9.892;2022-12-07T15:29:20;12.50;;;3.37;;
20101;SDS011;10210;52.284;9.892;2022-12-07T15:31:48;24.90;;;10.43;;
20101;SDS011;10210;52.284;9.892;2022-12-07T15:34:17;21.70;;;6.80;;
20101;SDS011;10210;52.284;9.892;2022-12-07T15:36:43;13.73;;;4.33;;
20101;SDS011;10210;52.284;9.892;2022-12-07T15:39:09;10.60;;;4.00;;
20101;SDS011;10210;52.284;9.892;2022-12-07T15:41:35;13.17;;;4.13;;
20101;SDS011;10210;52.284;9.892;2022-12-07T15:44:01;13.53;;;3.60;;
20101;SDS011;10210;52.284;9.892;2022-12-07T15:46:45;14.80;;;4.20;;
20101;SDS011;10210;52.284;9.892;2022-12-07T15:49:15;17.30;;;5.07;;
20101;SDS011;10210;52.284;9.892;2022-12-07T15:51:43;18.87;;;6.23;;
20101;SDS011;10210;52.284;9.892;2022-12-07T15:54:16;23.90;;;8.93;;
20101;SDS011;10210;52.284;9.892;2022-12-07T15:56:46;16.93;;;6.47;;
20101;SDS011;10210;52.284;9.892;2022-12-07T15:59:12;16.13;;;4.53;;
20101;SDS011;10210;52.284;9.892;2022-12-07T16:01:38;16.13;;;5.87;;
20101;SDS011;10210;52.284;9.892;2022-12-07T16:04:04;16.13;;;6.20;;
20101;SDS011;10210;52.284;9.892;2022-12-07T16:06:30;18.23;;;7.80;;
20101;SDS011;10210;52.284;9.892;2022-12-07T16:08:55;14.93;;;6.67;;
20101;SDS011;10210;52.284;9.892;2022-12-07T16:11:21;13.77;;;4.57;;
20101;SDS011;10210;52.284;9.892;2022-12-07T16:13:47;14.33;;;3.87;;
20101;SDS011;10210;52.284;9.892;2022-12-07T16:16:14;13.87;;;3.53;;
20101;SDS011;10210;52.284;9.892;2022-12-07T16:18:42;14.50;;;4.77;;
20101;SDS011;10210;52.284;9.892;2022-12-07T16:21:09;17.83;;;5.77;;
20101;SDS011;10210;52.284;9.892;2022-12-07T16:23:35;15.97;;;5.00;;
20101;SDS011;10210;52.284;9.892;2022-12-07T16:26:20;14.53;;;4.20;;
20101;SDS011;10210;52.284;9.892;2022-12-07T16:28:50;12.80;;;4.10;;
20101;SDS011;10210;52.284;9.892;2022-12-07T16:31:20;15.33;;;5.47;;
20101;SDS011;10210;52.284;9.892;2022-12-07T16:33:49;18.23;;;6.30;;
20101;SDS011;10210;52.284;9.892;2022-12-07T16:36:18;15.37;;;5.20;;
20101;SDS011;10210;52.284;9.892;2022-12-07T16:38:46;14.97;;;5.10;;
20101;SDS011;10210;52.284;9.892;2022-12-07T16:41:11;18.33;;;5.13;;
20101;SDS011;10210;52.284;9.892;2022-12-07T16:43:38;18.63;;;7.17;;
20101;SDS011;10210;52.284;9.892;2022-12-07T16:46:04;16.17;;;5.80;;
20101;SDS011;10210;52.284;9.892;2022-12-07T16:48:30;19.80;;;6.83;;
20101;SDS011;10210;52.284;9.892;2022-12-07T16:50:55;18.47;;;7.47;;
20101;SDS011;10210;52.284;9.892;2022-12-07T16:53:22;18.50;;;5.67;;
20101;SDS011;10210;52.284;9.892;2022-12-07T16:55:49;17.20;;;5.60;;
20101;SDS011;10210;52.284;9.892;2022-12-07T16:58:16;19.57;;;6.50;;
20101;SDS011;10210;52.284;9.892;2022-12-07T17:00:43;17.93;;;5.30;;
20101;SDS011;10210;52.284;9.892;2022-12-07T17:03:10;16.50;;;6.10;;
20101;SDS011;10210;52.284;9.892;2022-12-07T17:05:37;14.50;;;5.53;;
20101;SDS011;10210;52.284;9.892;2022-12-07T17:08:09;16.87;;;5.27;;
20101;SDS011;10210;52.284;9.892;2022-12-07T17:10:36;15.83;;;5.87;;
20101;SDS011;10210;52.284;9.892;2022-12-07T17:13:05;15.00;;;6.00;;
20101;SDS011;10210;52.284;9.892;2022-12-07T17:15:59;15.53;;;6.00;;